createdAt,value
2019-04-10T00:00:37.140Z,85.77
2019-04-10T00:03:06.708Z,85.90
2019-04-10T00:05:36.255Z,85.83
2019-04-10T00:08:06.196Z,85.60
2019-04-10T00:10:36.215Z,85.67
2019-04-10T00:13:06.689Z,85.49
2019-04-10T00:15:36.201Z,85.56
2019-04-10T00:18:05.673Z,85.62
2019-04-10T00:20:36.418Z,85.66
2019-04-10T00:23:06.803Z,85.30
2019-04-10T00:25:37.084Z,85.34
2019-04-10T00:28:08.040Z,85.32
2019-04-10T00:30:37.626Z,85.23
2019-04-10T00:33:08.195Z,85.07
2019-04-10T00:35:37.725Z,84.32
2019-04-10T00:38:07.237Z,84.72
2019-04-10T00:40:36.706Z,85.03
2019-04-10T00:43:06.603Z,85.23
2019-04-10T00:45:36.116Z,85.20
2019-04-10T00:48:05.988Z,85.13
2019-04-10T00:50:35.418Z,85.21
2019-04-10T00:53:05.110Z,85.13
2019-04-10T00:55:35.533Z,85.36
2019-04-10T00:58:05.814Z,85.19
2019-04-10T01:00:36.826Z,84.91
2019-04-10T01:03:07.424Z,85.21
2019-04-10T01:05:37.633Z,85.41
2019-04-10T01:08:07.160Z,85.63
2019-04-10T01:10:36.793Z,85.64
2019-04-10T01:13:06.275Z,85.59
2019-04-10T01:15:36.465Z,84.85
2019-04-10T01:18:06.761Z,83.92
2019-04-10T01:20:36.281Z,83.80
2019-04-10T01:23:05.922Z,83.80
2019-04-10T01:25:36.676Z,84.24
2019-04-10T01:28:06.783Z,84.74
2019-04-10T01:30:36.258Z,84.73
2019-04-10T01:33:06.182Z,83.68
2019-04-10T01:35:35.671Z,83.58
2019-04-10T01:38:06.468Z,83.21
2019-04-10T01:40:37.221Z,83.11
2019-04-10T01:43:12.886Z,82.99
2019-04-10T01:45:37.799Z,82.96
2019-04-10T01:48:07.915Z,82.64
2019-04-10T01:50:37.471Z,83.01
2019-04-10T01:53:06.892Z,83.07
2019-04-10T01:55:36.333Z,82.61
2019-04-10T01:58:10.649Z,83.34
2019-04-10T02:00:41.754Z,82.78
2019-04-10T02:03:11.885Z,82.55
2019-04-10T02:05:41.357Z,82.78
2019-04-10T02:08:13.551Z,83.04
2019-04-10T02:10:42.559Z,83.38
2019-04-10T02:13:11.975Z,83.12
2019-04-10T02:15:41.901Z,83.43
2019-04-10T02:18:11.298Z,83.45
2019-04-10T02:20:40.820Z,83.87
2019-04-10T02:23:10.252Z,83.45
2019-04-10T02:25:39.668Z,83.57
2019-04-10T02:28:09.100Z,83.30
2019-04-10T02:30:39.608Z,83.67
2019-04-10T02:33:10.696Z,83.86
2019-04-10T02:35:40.263Z,82.58
2019-04-10T02:38:29.125Z,82.30
2019-04-10T02:40:41.699Z,82.71
2019-04-10T02:43:12.560Z,81.62
2019-04-10T02:45:44.203Z,82.14
2019-04-10T02:48:14.915Z,81.20
2019-04-10T02:50:44.903Z,82.19
2019-04-10T02:53:15.336Z,82.62
2019-04-10T02:55:44.962Z,82.48
2019-04-10T02:58:15.928Z,82.91
2019-04-10T03:00:46.387Z,83.22
2019-04-10T03:03:15.987Z,83.59
2019-04-10T03:05:46.675Z,83.55
2019-04-10T03:08:17.371Z,83.52
2019-04-10T03:10:50.550Z,81.98
2019-04-10T03:13:19.676Z,81.63
2019-04-10T03:15:49.881Z,81.70
2019-04-10T03:18:20.888Z,81.44
2019-04-10T03:20:50.932Z,81.53
2019-04-10T03:23:21.099Z,81.55
2019-04-10T03:25:50.953Z,81.43
2019-04-10T03:28:20.499Z,81.68
2019-04-10T03:30:49.908Z,81.57
2019-04-10T03:33:26.127Z,81.08
2019-04-10T03:35:54.787Z,81.17
2019-04-10T03:38:24.302Z,81.32
2019-04-10T03:40:53.711Z,80.99
2019-04-10T03:43:23.139Z,81.18
2019-04-10T03:45:52.962Z,80.83
2019-04-10T03:48:23.055Z,80.61
2019-04-10T03:50:52.450Z,81.33
2019-04-10T03:53:22.313Z,81.04
2019-04-10T03:55:53.548Z,81.30
2019-04-10T03:58:23.267Z,81.00
2019-04-10T04:00:52.707Z,81.36
2019-04-10T04:03:22.179Z,80.65
2019-04-10T04:05:51.585Z,80.33
2019-04-10T04:08:21.576Z,79.17
2019-04-10T04:10:51.277Z,79.19
2019-04-10T04:13:21.655Z,79.74
2019-04-10T04:15:51.096Z,80.21
2019-04-10T04:18:21.386Z,80.89
2019-04-10T04:20:51.050Z,80.66
2019-04-10T04:23:21.475Z,80.08
2019-04-10T04:25:50.978Z,78.82
2019-04-10T04:28:20.393Z,79.53
2019-04-10T04:30:52.334Z,79.90
2019-04-10T04:33:21.205Z,80.28
2019-04-10T04:35:51.048Z,79.98
2019-04-10T04:38:20.527Z,80.47
2019-04-10T04:40:51.264Z,80.38
2019-04-10T04:43:21.807Z,80.97
2019-04-10T04:45:53.067Z,80.82
2019-04-10T04:48:22.523Z,80.34
2019-04-10T04:50:52.299Z,80.91
2019-04-10T04:53:21.736Z,80.88
2019-04-10T04:55:51.486Z,81.08
2019-04-10T04:58:20.945Z,81.12
2019-04-10T05:00:50.842Z,80.73
2019-04-10T05:03:20.774Z,79.66
2019-04-10T05:05:50.237Z,80.57
2019-04-10T05:08:19.687Z,80.77
2019-04-10T05:10:49.661Z,81.21
2019-04-10T05:13:19.146Z,80.62
2019-04-10T05:15:49.234Z,80.47
2019-04-10T05:18:19.051Z,79.20
2019-04-10T05:20:51.054Z,79.55
2019-04-10T05:23:20.542Z,79.81
2019-04-10T05:25:49.934Z,79.62
2019-04-10T05:28:20.394Z,79.64
2019-04-10T05:30:50.633Z,79.25
2019-04-10T05:33:20.510Z,78.63
2019-04-10T05:35:50.852Z,79.31
2019-04-10T05:38:20.785Z,79.37
2019-04-10T05:40:50.736Z,79.52
2019-04-10T05:43:20.131Z,79.56
2019-04-10T05:45:50.604Z,78.65
2019-04-10T05:48:22.491Z,79.32
2019-04-10T05:50:58.167Z,79.41
2019-04-10T05:53:22.574Z,78.83
2019-04-10T05:55:52.043Z,79.05
2019-04-10T05:58:21.819Z,79.89
2019-04-10T06:00:51.556Z,78.46
2019-04-10T06:03:20.944Z,78.91
2019-04-10T06:05:50.811Z,78.77
2019-04-10T06:08:20.343Z,77.21
2019-04-10T06:10:51.944Z,78.14
2019-04-10T06:13:22.703Z,79.44
2019-04-10T06:15:52.961Z,79.48
2019-04-10T06:18:22.884Z,78.98
2019-04-10T06:20:52.390Z,79.18
2019-04-10T06:23:21.795Z,79.52
2019-04-10T06:25:52.681Z,78.96
2019-04-10T06:28:24.290Z,78.23
2019-04-10T06:30:54.407Z,77.79
2019-04-10T06:33:24.350Z,78.04
2019-04-10T06:35:55.114Z,77.93
2019-04-10T06:38:26.915Z,77.61
2019-04-10T06:40:56.400Z,77.64
2019-04-10T06:43:25.897Z,77.61
2019-04-10T06:45:55.808Z,77.78
2019-04-10T06:48:25.914Z,77.65
2019-04-10T06:50:55.721Z,77.62
2019-04-10T06:53:25.125Z,77.46
2019-04-10T06:55:59.310Z,76.51
2019-04-10T06:58:36.550Z,75.87
2019-04-10T07:01:06.408Z,75.88
2019-04-10T07:03:49.494Z,75.93
2019-04-10T07:06:14.207Z,76.32
2019-04-10T07:08:38.233Z,73.69
2019-04-10T07:11:10.598Z,74.47
2019-04-10T07:13:40.447Z,74.48
2019-04-10T07:16:11.260Z,75.52
2019-04-10T07:18:41.268Z,75.72
2019-04-10T07:21:12.496Z,73.96
2019-04-10T07:23:42.834Z,74.35
2019-04-10T07:26:18.432Z,74.34
2019-04-10T07:28:45.910Z,74.27
2019-04-10T07:31:14.650Z,73.21
2019-04-10T07:36:14.088Z,73.57
2019-04-10T07:38:43.546Z,73.99
2019-04-10T07:41:19.416Z,73.31
2019-04-10T07:43:44.781Z,73.10
2019-04-10T07:46:15.235Z,72.34
2019-04-10T07:48:45.563Z,72.70
2019-04-10T07:51:15.089Z,73.99
2019-04-10T07:53:44.520Z,73.86
2019-04-10T07:56:18.994Z,74.49
2019-04-10T07:58:46.047Z,74.31
2019-04-10T08:01:16.186Z,73.55
2019-04-10T08:03:46.536Z,75.00
2019-04-10T08:06:16.120Z,73.88
2019-04-10T08:08:45.542Z,74.01
2019-04-10T08:11:15.481Z,74.30
2019-04-10T08:13:44.953Z,74.19
2019-04-10T08:16:14.861Z,74.78
2019-04-10T08:18:44.352Z,75.42
2019-04-10T08:21:13.831Z,76.27
2019-04-10T08:23:44.593Z,75.73
2019-04-10T08:26:14.315Z,75.57
2019-04-10T08:28:43.794Z,75.53
2019-04-10T08:31:13.202Z,75.73
2019-04-10T08:33:42.631Z,76.14
2019-04-10T08:36:12.980Z,75.75
2019-04-10T08:38:42.448Z,74.25
2019-04-10T08:41:12.898Z,73.82
2019-04-10T08:43:42.383Z,74.49
2019-04-10T08:46:12.792Z,74.29
2019-04-10T08:48:43.410Z,74.84
2019-04-10T08:51:12.878Z,74.53
2019-04-10T08:53:54.100Z,73.79
2019-04-10T08:56:22.693Z,74.11
2019-04-10T08:58:52.127Z,73.31
2019-04-10T09:01:21.531Z,73.60
2019-04-10T09:03:51.067Z,73.69
2019-04-10T09:06:20.450Z,73.82
2019-04-10T09:08:50.959Z,72.67
2019-04-10T09:11:26.227Z,71.11
2019-04-10T09:13:52.745Z,71.27
2019-04-10T09:16:22.603Z,73.32
2019-04-10T09:18:52.039Z,73.40
2019-04-10T09:21:21.644Z,72.60
2019-04-10T09:23:53.383Z,72.89
2019-04-10T09:26:22.439Z,73.07
2019-04-10T09:28:52.935Z,73.60
2019-04-10T09:31:23.912Z,74.39
2019-04-10T09:33:53.764Z,73.23
2019-04-10T09:36:23.309Z,72.97
2019-04-10T09:38:52.919Z,72.78
2019-04-10T09:41:22.337Z,73.84
2019-04-10T09:43:51.822Z,73.71
2019-04-10T09:46:21.382Z,73.42
2019-04-10T09:48:51.780Z,74.05
2019-04-10T09:51:21.518Z,74.12
2019-04-10T09:53:51.154Z,72.95
2019-04-10T09:56:21.371Z,72.20
2019-04-10T09:58:51.893Z,72.66
2019-04-10T10:01:22.055Z,71.92
2019-04-10T10:03:52.703Z,71.96
2019-04-10T10:06:29.589Z,71.44
2019-04-10T10:08:54.328Z,71.34
2019-04-10T10:11:24.304Z,70.17
2019-04-10T10:13:54.284Z,69.94
2019-04-10T10:16:23.991Z,69.06
2019-04-10T10:18:54.064Z,69.52
2019-04-10T10:21:24.135Z,69.10
2019-04-10T10:23:54.068Z,68.34
2019-04-10T10:26:23.956Z,69.35
2019-04-10T10:28:54.494Z,68.07
2019-04-10T10:31:24.192Z,67.12
2019-04-10T10:33:54.946Z,68.22
2019-04-10T10:36:34.693Z,65.22
2019-04-10T10:39:05.195Z,65.99
2019-04-10T10:41:26.764Z,66.88
2019-04-10T10:43:56.462Z,66.09
2019-04-10T10:46:27.206Z,66.93
2019-04-10T10:48:56.880Z,64.74
2019-04-10T10:51:26.771Z,66.12
2019-04-10T10:53:56.666Z,67.38
2019-04-10T10:56:27.044Z,67.35
2019-04-10T10:58:58.834Z,67.62
2019-04-10T11:01:27.635Z,65.63
2019-04-10T11:03:56.998Z,65.14
2019-04-10T11:06:26.862Z,65.77
2019-04-10T11:08:56.584Z,67.05
2019-04-10T11:11:25.971Z,66.74
2019-04-10T11:13:55.477Z,66.16
2019-04-10T11:16:24.953Z,67.39
2019-04-10T11:18:55.047Z,66.89
2019-04-10T11:21:24.790Z,67.23
2019-04-10T11:23:55.630Z,66.77
2019-04-10T11:26:25.714Z,66.18
2019-04-10T11:28:55.788Z,67.55
2019-04-10T11:31:25.476Z,68.34
2019-04-10T11:33:56.431Z,68.24
2019-04-10T11:36:26.128Z,68.11
2019-04-10T11:39:04.998Z,66.83
2019-04-10T11:41:29.495Z,65.66
2019-04-10T11:43:58.012Z,64.49
2019-04-10T11:46:29.829Z,64.87
2019-04-10T11:49:00.636Z,64.89
2019-04-10T11:51:31.582Z,62.61
2019-04-10T11:54:02.250Z,62.11
2019-04-10T11:56:33.923Z,62.49
2019-04-10T11:59:05.773Z,59.95
2019-04-10T12:01:36.242Z,58.17
2019-04-10T12:04:09.782Z,56.51
2019-04-10T12:06:40.335Z,53.38
2019-04-10T12:09:43.274Z,50.20
2019-04-10T12:11:42.515Z,45.63
2019-04-10T12:14:13.069Z,43.31
2019-04-10T12:16:42.562Z,41.41
2019-04-10T12:19:13.082Z,41.63
2019-04-10T12:21:42.586Z,40.87
2019-04-10T12:24:12.078Z,42.56
2019-04-10T12:26:42.335Z,45.09
2019-04-10T12:29:11.880Z,46.04
2019-04-10T12:31:41.928Z,46.48
2019-04-10T12:34:11.582Z,46.48
2019-04-10T12:36:42.742Z,47.44
2019-04-10T12:39:12.221Z,48.80
2019-04-10T12:41:41.699Z,50.10
2019-04-10T12:44:11.637Z,51.09
2019-04-10T12:46:41.506Z,52.10
2019-04-10T12:49:11.563Z,51.72
2019-04-10T12:51:41.549Z,51.91
2019-04-10T12:54:12.120Z,52.69
2019-04-10T12:56:42.137Z,54.23
2019-04-10T12:59:11.635Z,54.76
2019-04-10T13:01:41.121Z,56.08
2019-04-10T13:04:11.654Z,56.78
2019-04-10T13:06:42.268Z,57.55
2019-04-10T13:09:13.410Z,58.04
2019-04-10T13:11:44.765Z,58.72
2019-04-10T13:14:14.772Z,59.34
2019-04-10T13:16:44.671Z,59.62
2019-04-10T13:19:14.162Z,59.79
2019-04-10T13:21:44.394Z,60.86
2019-04-10T13:24:13.863Z,59.44
2019-04-10T13:26:43.273Z,60.25
2019-04-10T13:29:12.768Z,61.34
2019-04-10T13:31:42.542Z,61.33
2019-04-10T13:34:13.105Z,61.37
2019-04-10T13:36:42.587Z,62.17
2019-04-10T13:39:17.114Z,61.19
2019-04-10T13:41:45.591Z,60.29
2019-04-10T13:44:16.213Z,61.51
2019-04-10T13:46:45.846Z,57.98
2019-04-10T13:49:15.230Z,57.75
2019-04-10T13:51:45.626Z,58.97
2019-04-10T13:54:16.056Z,58.78
2019-04-10T13:56:46.809Z,59.49
2019-04-10T13:59:17.181Z,59.70
2019-04-10T14:01:46.594Z,60.25
2019-04-10T14:04:16.750Z,58.21
2019-04-10T14:06:48.869Z,59.17
2019-04-10T14:09:31.120Z,61.26
2019-04-10T14:11:51.078Z,61.60
2019-04-10T14:14:20.722Z,60.08
2019-04-10T14:16:50.124Z,61.09
2019-04-10T14:19:19.555Z,60.54
2019-04-10T14:21:49.706Z,60.75
2019-04-10T14:24:21.989Z,60.85
2019-04-10T14:27:00.094Z,61.11
2019-04-10T14:29:30.171Z,61.13
2019-04-10T14:32:01.393Z,62.34
2019-04-10T14:34:30.876Z,62.67
2019-04-10T14:37:01.146Z,63.29
2019-04-10T14:39:31.462Z,63.29
2019-04-10T14:42:00.955Z,63.45
2019-04-10T14:44:30.673Z,62.60
2019-04-10T14:47:00.271Z,62.54
2019-04-10T14:49:29.774Z,60.82
2019-04-10T14:51:59.208Z,61.37
2019-04-10T14:54:28.615Z,61.83
2019-04-10T14:56:58.809Z,62.52
2019-04-10T14:59:28.286Z,63.86
2019-04-10T15:01:58.031Z,64.06
2019-04-10T15:04:27.388Z,65.42
2019-04-10T15:06:57.580Z,65.11
2019-04-10T15:09:27.720Z,65.87
2019-04-10T15:11:57.374Z,67.04
2019-04-10T15:14:27.846Z,67.29
2019-04-10T15:17:02.844Z,67.02
2019-04-10T15:19:28.982Z,67.02
2019-04-10T15:21:59.085Z,67.79
2019-04-10T15:24:28.668Z,67.73
2019-04-10T15:26:58.101Z,67.83
2019-04-10T15:29:28.108Z,67.72
2019-04-10T15:31:57.838Z,65.72
2019-04-10T15:34:28.245Z,67.01
2019-04-10T15:36:58.501Z,67.93
2019-04-10T15:39:34.117Z,67.81
2019-04-10T15:41:59.522Z,68.25
2019-04-10T15:44:29.859Z,68.71
2019-04-10T15:47:10.642Z,68.36
2019-04-10T15:49:31.023Z,69.49
2019-04-10T15:52:01.561Z,69.98
2019-04-10T15:54:32.118Z,69.74
2019-04-10T15:57:02.630Z,69.27
2019-04-10T15:59:32.399Z,69.10
2019-04-10T16:02:01.840Z,67.46
2019-04-10T16:04:31.686Z,67.03
2019-04-10T16:07:02.112Z,67.11
2019-04-10T16:09:43.702Z,66.78
2019-04-10T16:12:14.508Z,66.80
2019-04-10T16:14:44.425Z,67.58
2019-04-10T16:17:19.304Z,67.64
2019-04-10T16:20:05.158Z,67.36
2019-04-10T16:22:40.567Z,67.52
2019-04-10T16:25:13.788Z,67.41
2019-04-10T16:27:43.348Z,67.93
2019-04-10T16:30:15.936Z,66.96
2019-04-10T16:32:46.717Z,67.46
2019-04-10T16:35:16.298Z,68.00
2019-04-10T16:37:45.711Z,68.33
2019-04-10T16:40:15.398Z,67.89
2019-04-10T16:42:44.998Z,67.70
2019-04-10T16:45:15.727Z,68.28
2019-04-10T16:47:46.271Z,68.86
2019-04-10T16:50:15.900Z,69.22
2019-04-10T16:52:45.347Z,69.21
2019-04-10T16:55:15.675Z,67.66
2019-04-10T16:57:45.425Z,67.95
2019-04-10T17:00:16.803Z,68.08
2019-04-10T17:02:46.556Z,68.13
2019-04-10T17:05:16.488Z,68.97
2019-04-10T17:07:46.074Z,69.38
2019-04-10T17:10:22.420Z,69.01
2019-04-10T17:12:48.399Z,69.57
2019-04-10T17:15:17.941Z,69.42
2019-04-10T17:17:47.422Z,69.52
2019-04-10T17:20:17.102Z,69.00
2019-04-10T17:22:49.182Z,69.78
2019-04-10T17:25:18.059Z,70.21
2019-04-10T17:27:47.961Z,71.18
2019-04-10T17:30:17.824Z,71.82
2019-04-10T17:32:47.342Z,72.68
2019-04-10T17:35:16.825Z,72.04
2019-04-10T17:37:47.696Z,72.01
2019-04-10T17:40:27.411Z,72.00
2019-04-10T17:42:48.876Z,72.63
2019-04-10T17:45:18.614Z,72.52
2019-04-10T17:47:49.241Z,72.63
2019-04-10T17:50:20.317Z,73.30
2019-04-10T17:52:51.157Z,72.98
2019-04-10T17:55:20.653Z,73.57
2019-04-10T17:57:53.162Z,73.68
2019-04-10T18:00:39.958Z,74.08
2019-04-10T18:03:09.426Z,74.46
2019-04-10T18:05:39.159Z,75.08
2019-04-10T18:08:08.711Z,74.57
2019-04-10T18:10:46.423Z,75.42
2019-04-10T18:13:09.277Z,75.86
2019-04-10T18:15:39.889Z,75.18
2019-04-10T18:18:09.416Z,75.88
2019-04-10T18:20:38.811Z,76.64
2019-04-10T18:23:09.234Z,76.62
2019-04-10T18:25:38.662Z,76.80
2019-04-10T18:28:09.513Z,77.30
2019-04-10T18:30:39.069Z,77.47
2019-04-10T18:33:08.508Z,77.69
2019-04-10T18:35:38.676Z,77.85
2019-04-10T18:38:09.036Z,78.29
2019-04-10T18:40:39.231Z,78.47
2019-04-10T18:43:09.718Z,77.79
2019-04-10T18:45:40.945Z,77.89
2019-04-10T18:48:10.461Z,77.59
2019-04-10T18:50:40.878Z,77.69
2019-04-10T18:53:10.989Z,77.45
2019-04-10T18:55:40.710Z,77.27
2019-04-10T18:58:11.734Z,78.26
2019-04-10T19:00:48.675Z,78.27
2019-04-10T19:06:38.938Z,78.20
2019-04-10T19:09:15.730Z,78.55
2019-04-10T19:11:40.106Z,78.80
2019-04-10T19:14:09.484Z,78.89
2019-04-10T19:16:39.599Z,79.03
2019-04-10T19:19:10.321Z,79.23
2019-04-10T19:21:39.917Z,79.54
2019-04-10T19:24:09.805Z,79.66
2019-04-10T19:26:39.919Z,79.75
2019-04-10T19:29:09.578Z,79.76
2019-04-10T19:31:40.601Z,79.38
2019-04-10T19:34:10.017Z,79.22
2019-04-10T19:36:39.799Z,78.77
2019-04-10T19:39:09.748Z,78.51
2019-04-10T19:41:41.447Z,78.53
2019-04-10T19:44:10.742Z,78.42
2019-04-10T19:46:40.197Z,77.89
2019-04-10T19:49:10.166Z,77.20
2019-04-10T19:51:40.537Z,77.41
2019-04-10T19:54:10.975Z,77.04
2019-04-10T19:56:40.622Z,77.31
2019-04-10T19:59:10.486Z,76.49
2019-04-10T20:01:40.262Z,76.98
2019-04-10T20:04:10.399Z,73.29
2019-04-10T20:06:40.587Z,70.93
2019-04-10T20:09:10.590Z,70.70
2019-04-10T20:11:44.901Z,66.04
2019-04-10T20:14:12.632Z,67.49
2019-04-10T20:16:42.382Z,66.04
2019-04-10T20:19:12.949Z,65.24
2019-04-10T20:21:42.449Z,62.28
2019-04-10T20:24:13.460Z,63.47
2019-04-10T20:26:45.420Z,61.71
2019-04-10T20:29:15.161Z,59.19
2019-04-10T20:31:45.688Z,58.38
2019-04-10T20:34:15.772Z,55.88
2019-04-10T20:36:45.141Z,57.58
2019-04-10T20:39:15.044Z,57.39
2019-04-10T20:41:51.191Z,57.84
2019-04-10T20:44:16.575Z,58.17
2019-04-10T20:46:46.563Z,57.82
2019-04-10T20:49:16.321Z,57.97
2019-04-10T20:51:46.019Z,56.71
2019-04-10T20:54:16.949Z,57.40
2019-04-10T20:56:46.591Z,57.17
2019-04-10T20:59:15.968Z,56.47
2019-04-10T21:01:45.372Z,54.91
2019-04-10T21:04:15.084Z,54.71
2019-04-10T21:06:45.960Z,55.78
2019-04-10T21:09:15.615Z,53.74
2019-04-10T21:11:58.802Z,52.10
2019-04-10T21:14:16.157Z,50.96
2019-04-10T21:16:45.583Z,49.60
2019-04-10T21:19:15.056Z,49.34
2019-04-10T21:21:44.479Z,49.93
2019-04-10T21:24:13.921Z,49.05
2019-04-10T21:26:44.426Z,48.85
2019-04-10T21:29:16.359Z,49.58
2019-04-10T21:31:53.293Z,48.94
2019-04-10T21:34:24.540Z,49.74
2019-04-10T21:36:53.952Z,49.63
2019-04-10T21:39:23.434Z,49.72
2019-04-10T21:41:53.540Z,49.14
2019-04-10T21:44:23.005Z,49.85
2019-04-10T21:46:53.001Z,49.83
2019-04-10T21:49:22.519Z,48.88
2019-04-10T21:51:51.929Z,50.50
2019-04-10T21:54:22.406Z,49.30
2019-04-10T21:56:52.015Z,48.94
2019-04-10T21:59:22.539Z,50.24
2019-04-10T22:01:52.881Z,50.19
2019-04-10T22:04:23.125Z,49.84
2019-04-10T22:07:11.788Z,50.68
2019-04-10T22:09:48.973Z,50.45
2019-04-10T22:12:30.710Z,51.76
2019-04-10T22:14:53.932Z,50.64
2019-04-10T22:17:23.419Z,51.07
2019-04-10T22:19:53.219Z,52.00
2019-04-10T22:22:22.619Z,50.89
2019-04-10T22:24:56.990Z,51.00
2019-04-10T22:27:27.931Z,52.15
2019-04-10T22:29:58.434Z,51.65
2019-04-10T22:32:29.036Z,52.18
2019-04-10T22:34:59.035Z,52.09
2019-04-10T22:37:28.505Z,52.07
2019-04-10T22:39:58.692Z,51.66
2019-04-10T22:42:36.595Z,51.56
2019-04-10T22:45:00.344Z,52.15
2019-04-10T22:47:29.933Z,52.74
2019-04-10T22:50:00.619Z,52.05
2019-04-10T22:52:30.293Z,52.97
2019-04-10T22:54:59.644Z,53.92
2019-04-10T22:57:29.348Z,54.12
2019-04-10T22:59:59.525Z,53.63
2019-04-10T23:02:29.940Z,53.80
2019-04-10T23:04:59.765Z,53.16
2019-04-10T23:07:30.200Z,53.82
2019-04-10T23:10:00.331Z,53.90
2019-04-10T23:12:30.028Z,54.54
2019-04-10T23:14:59.489Z,54.61
2019-04-10T23:17:28.892Z,54.33
2019-04-10T23:19:58.524Z,54.74
2019-04-10T23:22:28.004Z,55.44
2019-04-10T23:24:58.158Z,55.81
2019-04-10T23:27:28.274Z,56.26
2019-04-10T23:29:57.766Z,55.35
2019-04-10T23:32:27.183Z,55.40
2019-04-10T23:34:56.953Z,54.58
2019-04-10T23:37:26.723Z,55.71
2019-04-10T23:39:56.616Z,55.35
2019-04-10T23:42:28.192Z,54.82
2019-04-10T23:44:57.533Z,54.13
2019-04-10T23:47:26.917Z,55.20
2019-04-10T23:49:57.467Z,55.38
2019-04-10T23:52:27.604Z,54.55
2019-04-10T23:54:57.568Z,54.43
2019-04-10T23:57:27.439Z,55.32
2019-04-10T23:59:57.182Z,54.99
